Time;durP1;ratioP1;P1;durP2;ratioP2;P2;SDS_P1;SDS_P2;PMS_P1;PMS_P2;Temp;Humidity;BMP_temperature;BMP_pressure;BME280_temperature;BME280_humidity;BME280_pressure;Samples;Min_cycle;Max_cycle;Signal;HPM_P1;HPM_P2
2022/01/20 00:00:33;;;;;;;15.87;9.50;;;;;;;-2.42;80.33;101489.88;4991124;28;20027;-73
2022/01/20 00:03:02;;;;;;;16.40;10.13;;;;;;;-2.52;80.38;101498.13;4991182;28;20026;-73
2022/01/20 00:08:11;;;;;;;16.37;10.53;;;;;;;-2.69;80.96;101500.50;4989985;28;20031;-73
2022/01/20 00:27:09;;;;;;;18.70;10.37;;;;;;;-2.97;82.47;101421.75;4990041;28;20073;-72
2022/01/20 00:30:04;;;;;;;19.63;11.00;;;;;;;-2.61;82.71;101484.53;4990572;28;20049;-71
2022/01/20 00:32:27;;;;;;;19.07;11.43;;;;;;;-2.47;82.57;101488.50;4990455;28;20030;-70
2022/01/20 00:37:22;;;;;;;17.13;11.07;;;;;;;-2.53;82.59;101488.78;4956773;28;20092;-74
2022/01/20 00:39:48;;;;;;;20.03;12.03;;;;;;;-2.91;82.87;101430.00;4990398;28;20026;-74
2022/01/20 00:42:15;;;;;;;24.00;11.83;;;;;;;-2.57;82.55;101481.56;4990582;28;20018;-72
2022/01/20 00:45:01;;;;;;;17.37;11.60;;;;;;;-2.39;81.66;101481.72;4990474;28;20108;-74
2022/01/20 00:47:26;;;;;;;19.03;12.57;;;;;;;-2.39;81.29;101466.53;4948599;29;20078;-73
2022/01/20 00:49:52;;;;;;;21.73;12.20;;;;;;;-2.29;81.22;101474.38;4949327;29;20490;-74
2022/01/20 00:52:18;;;;;;;20.57;11.73;;;;;;;-2.34;80.87;101447.72;4949137;29;20144;-74
2022/01/20 00:54:43;;;;;;;19.97;11.93;;;;;;;-2.29;80.50;101457.56;4949085;29;20490;-72
2022/01/20 00:57:09;;;;;;;20.63;11.40;;;;;;;-2.54;81.72;101460.78;4948871;29;20050;-75
2022/01/20 00:59:35;;;;;;;21.13;12.17;;;;;;;-2.73;82.08;101465.53;4949221;29;20118;-77
2022/01/20 01:02:05;;;;;;;22.53;12.27;;;;;;;-3.15;82.79;101419.06;4949201;28;20047;-72
2022/01/20 01:04:31;;;;;;;21.23;11.93;;;;;;;-3.04;83.83;101447.09;4948814;29;20122;-71
2022/01/20 01:09:41;;;;;;;23.43;12.40;;;;;;;-3.01;83.87;101427.25;4949402;29;20046;-71
2022/01/20 01:12:11;;;;;;;17.57;12.00;;;;;;;-3.08;83.25;101402.94;4948907;29;20039;-71
2022/01/20 01:14:42;;;;;;;19.33;11.27;;;;;;;-2.82;82.90;101427.53;4948739;29;20482;-72
2022/01/20 01:24:45;;;;;;;16.33;10.83;;;;;;;-2.49;81.95;101432.72;4994304;28;20392;-72
2022/01/20 01:27:13;;;;;;;18.63;10.90;;;;;;;-2.63;81.96;101422.78;4993967;28;20077;-70
2022/01/20 01:32:08;;;;;;;18.13;10.50;;;;;;;-2.80;82.45;101394.13;4992911;28;20033;-74
2022/01/20 01:34:36;;;;;;;18.73;10.93;;;;;;;-2.71;82.18;101399.25;4994090;28;20030;-70
2022/01/20 01:37:06;;;;;;;18.63;10.63;;;;;;;-2.66;81.80;101389.63;4993639;28;20500;-72
2022/01/20 01:39:32;;;;;;;19.67;11.23;;;;;;;-3.09;81.63;101313.63;4993768;28;20062;-72
2022/01/20 01:41:59;;;;;;;23.23;11.47;;;;;;;-2.87;81.61;101366.41;4993826;28;20120;-75
2022/01/20 01:44:28;;;;;;;20.10;11.20;;;;;;;-2.78;81.73;101390.13;4993657;28;20029;-74
2022/01/20 01:46:55;;;;;;;17.08;9.25;;;;;;;-2.69;81.75;101424.66;4993296;28;20140;-73
2022/01/20 01:49:21;;;;;;;19.97;11.70;;;;;;;-3.01;81.69;101357.38;4993037;28;20471;-72
2022/01/20 01:51:48;;;;;;;18.63;11.77;;;;;;;-2.66;81.38;101417.44;4992024;28;20037;-74
2022/01/20 01:54:15;;;;;;;18.47;11.57;;;;;;;-2.85;81.16;101370.00;4993555;28;20026;-74
2022/01/20 01:56:41;;;;;;;20.30;12.00;;;;;;;-2.82;81.38;101380.41;4958813;28;20065;-71
2022/01/20 01:59:08;;;;;;;20.43;10.83;;;;;;;-2.81;81.90;101378.81;4975994;28;20552;-73
2022/01/20 02:01:36;;;;;;;21.23;11.80;;;;;;;-2.86;82.10;101369.84;4992112;28;20507;-75
2022/01/20 02:04:13;;;;;;;20.83;11.20;;;;;;;-2.86;81.61;101375.78;4992990;28;20081;-71
2022/01/20 02:20:38;;;;;;;18.70;10.77;;;;;;;-4.12;90.14;101358.16;4829703;29;20064;-73
2022/01/20 02:23:04;;;;;;;18.97;11.70;;;;;;;-4.16;92.10;101368.63;4839174;29;20090;-72
2022/01/20 02:25:35;;;;;;;21.87;12.40;;;;;;;-4.14;92.02;101362.13;4839099;29;20509;-73
2022/01/20 02:28:04;;;;;;;21.20;12.83;;;;;;;-4.44;92.57;101322.72;4838631;29;20034;-72
2022/01/20 02:30:30;;;;;;;21.05;13.60;;;;;;;-4.24;92.86;101355.16;4838192;29;20671;-72
2022/01/20 02:32:59;;;;;;;26.47;13.43;;;;;;;-4.17;92.32;101351.72;4838772;29;20597;-72
2022/01/20 02:35:27;;;;;;;17.23;10.10;;;;;;;-4.16;91.76;101303.06;4838923;29;20034;-70
2022/01/20 02:38:01;;;;;;;19.60;12.50;;;;;;;-3.82;89.90;101345.44;4841323;29;20044;-70
2022/01/20 02:45:42;;;;;;;24.53;13.73;;;;;;;-3.86;90.48;101345.88;4861216;29;20581;-73
2022/01/20 02:48:08;;;;;;;25.07;12.97;;;;;;;-4.06;90.15;101299.19;4912743;29;20076;-72
2022/01/20 02:50:33;;;;;;;33.20;15.53;;;;;;;-3.82;89.50;101332.84;4913258;29;20048;-70
2022/01/20 02:52:59;;;;;;;31.00;14.20;;;;;;;-3.58;89.11;101349.75;4912938;29;20036;-72
2022/01/20 02:55:24;;;;;;;30.27;14.73;;;;;;;-3.69;88.28;101299.72;4925926;28;20504;-69
2022/01/20 02:57:50;;;;;;;32.93;14.23;;;;;;;-3.53;87.62;101347.69;4992008;28;20030;-73
2022/01/20 03:00:15;;;;;;;30.07;14.70;;;;;;;-3.81;88.11;101323.66;4992122;28;20066;-69
2022/01/20 03:02:42;;;;;;;28.20;14.00;;;;;;;-3.85;88.80;101334.13;4992317;28;20034;-73
2022/01/20 03:05:10;;;;;;;30.43;15.57;;;;;;;-3.89;89.00;101327.84;4992145;28;20105;-69
2022/01/20 03:07:36;;;;;;;28.23;14.10;;;;;;;-4.22;90.43;101319.31;4991779;28;20030;-69
2022/01/20 03:10:06;;;;;;;28.10;14.63;;;;;;;-4.24;90.86;101298.09;4992295;28;20026;-72
2022/01/20 03:12:32;;;;;;;26.97;14.07;;;;;;;-4.20;90.55;101321.09;4992192;28;20034;-72
2022/01/20 03:14:58;;;;;;;26.00;13.60;;;;;;;-4.59;91.55;101295.09;4992195;28;20106;-71
2022/01/20 03:17:23;;;;;;;24.77;13.20;;;;;;;-4.47;92.27;101325.81;4991958;28;20101;-71
2022/01/20 03:19:49;;;;;;;23.93;13.27;;;;;;;-4.65;93.48;101318.72;4991996;28;20030;-69
2022/01/20 03:22:14;;;;;;;18.57;9.10;;;;;;;-4.80;92.64;101306.22;4940930;28;20070;-73
2022/01/20 03:24:39;;;;;;;17.30;8.90;;;;;;;-5.32;94.16;101277.72;4991915;28;20034;-71
2022/01/20 03:27:05;;;;;;;15.07;8.07;;;;;;;-5.20;95.56;101317.78;4991780;28;20407;-74
2022/01/20 03:29:30;;;;;;;15.80;8.77;;;;;;;-5.38;94.98;101263.72;4991645;28;20026;-72
2022/01/20 03:31:56;;;;;;;15.17;7.63;;;;;;;-4.90;94.06;101328.59;4991648;28;20026;-72
2022/01/20 03:34:22;;;;;;;12.27;7.27;;;;;;;-4.95;93.09;101317.09;4991833;28;20109;-73
2022/01/20 03:36:48;;;;;;;15.13;7.83;;;;;;;-4.96;93.12;101307.75;4990852;28;20109;-73
2022/01/20 03:39:14;;;;;;;19.40;9.63;;;;;;;-5.07;92.68;101277.25;4991808;28;20030;-73
2022/01/20 03:41:39;;;;;;;18.20;9.83;;;;;;;-4.80;91.62;101298.66;4991335;28;20037;-70
2022/01/20 03:44:05;;;;;;;17.07;9.20;;;;;;;-4.66;91.03;101301.81;4991451;28;20034;-69
2022/01/20 03:46:31;;;;;;;14.40;8.43;;;;;;;-4.61;90.56;101296.56;4990260;28;20516;-74
2022/01/20 03:49:07;;;;;;;20.00;9.93;;;;;;;-4.45;90.84;101304.22;4991152;28;20084;-70
2022/01/20 03:51:32;;;;;;;19.30;9.47;;;;;;;-4.46;90.03;101309.97;4991242;28;20085;-73
2022/01/20 03:53:58;;;;;;;16.10;8.80;;;;;;;-4.39;90.03;101298.91;4991412;28;20018;-72
2022/01/20 03:56:24;;;;;;;21.67;9.20;;;;;;;-4.58;88.95;101283.41;4990718;28;20034;-72
2022/01/20 03:58:51;;;;;;;20.97;10.97;;;;;;;-4.51;89.12;101298.50;4991210;28;20030;-72
2022/01/20 04:01:17;;;;;;;18.17;10.30;;;;;;;-4.44;89.75;101292.50;4990995;28;20030;-72
2022/01/20 04:03:44;;;;;;;25.80;12.57;;;;;;;-4.65;90.55;101303.63;4990850;28;20084;-72
2022/01/20 04:06:10;;;;;;;31.07;14.10;;;;;;;-4.78;91.21;101311.44;4991184;28;20034;-70
2022/01/20 04:08:39;;;;;;;35.90;14.17;;;;;;;-5.08;92.33;101267.88;4990729;28;20034;-73
2022/01/20 04:11:10;;;;;;;31.58;14.75;;;;;;;-5.23;92.28;101241.00;4973842;28;20018;-69
2022/01/20 04:13:36;;;;;;;24.90;12.77;;;;;;;-4.92;92.67;101305.75;4949356;29;20544;-71
2022/01/20 04:16:12;;;;;;;26.77;13.73;;;;;;;-5.14;94.00;101297.41;4949698;29;20501;-69
2022/01/20 04:18:51;;;;;;;26.67;12.57;;;;;;;-5.28;95.46;101295.84;4949190;28;20039;-69
2022/01/20 04:21:17;;;;;;;26.65;14.20;;;;;;;-5.45;95.82;101261.22;4949470;29;20019;-69
2022/01/20 04:23:43;;;;;;;21.23;10.93;;;;;;;-5.22;95.92;101295.63;4949685;29;20039;-72
2022/01/20 04:26:08;;;;;;;22.07;12.20;;;;;;;-5.16;96.38;101285.38;4949491;29;20027;-69
2022/01/20 04:28:33;;;;;;;21.70;11.17;;;;;;;-5.08;95.05;101297.22;4949365;28;20053;-72
2022/01/20 04:30:59;;;;;;;26.87;12.70;;;;;;;-4.99;94.55;101295.72;4949274;29;20027;-73
2022/01/20 04:33:24;;;;;;;31.73;13.40;;;;;;;-5.07;94.31;101254.59;4949371;28;20090;-72
2022/01/20 04:35:50;;;;;;;35.20;16.77;;;;;;;-4.80;93.06;101295.25;4949483;29;20053;-77
2022/01/20 04:38:15;;;;;;;27.83;13.50;;;;;;;-4.79;92.56;101280.31;4949141;29;20082;-75
2022/01/20 04:40:42;;;;;;;33.57;14.17;;;;;;;-4.72;91.77;101295.38;4949543;28;20088;-69
2022/01/20 04:43:08;;;;;;;25.43;12.73;;;;;;;-4.88;92.17;101261.66;4949208;29;20033;-73
2022/01/20 04:45:41;;;;;;;25.80;12.03;;;;;;;-5.01;92.10;101239.25;4986002;28;21042;-71
2022/01/20 04:48:24;;;;;;;27.90;11.90;;;;;;;-4.74;92.17;101288.38;4987813;28;20054;-74
2022/01/20 04:59:04;;;;;;;20.50;9.87;;;;;;;-5.14;92.80;101299.03;4930097;29;20038;-71
2022/01/20 05:01:30;;;;;;;24.10;11.23;;;;;;;-5.22;92.84;101278.00;4930185;29;20039;-73
2022/01/20 05:03:56;;;;;;;20.67;10.03;;;;;;;-5.05;92.30;101279.91;4929855;29;20410;-71
2022/01/20 05:06:22;;;;;;;19.90;11.03;;;;;;;-5.31;92.30;101269.44;4929479;29;20042;-73
2022/01/20 05:08:49;;;;;;;24.80;10.63;;;;;;;-5.28;92.46;101274.84;4913611;29;20040;-74
2022/01/20 05:11:16;;;;;;;24.10;10.80;;;;;;;-5.26;92.41;101284.34;4929672;29;20036;-72
2022/01/20 05:13:41;;;;;;;19.00;10.77;;;;;;;-5.49;92.69;101238.09;4929774;29;20107;-74
2022/01/20 05:16:08;;;;;;;23.53;11.27;;;;;;;-5.57;93.33;101279.97;4929952;29;20032;-71
2022/01/20 05:18:34;;;;;;;20.20;11.03;;;;;;;-5.82;94.28;101258.66;4924809;29;20047;-71
2022/01/20 05:21:00;;;;;;;25.30;10.23;;;;;;;-5.86;95.25;101269.97;4930406;29;20437;-69
2022/01/20 05:23:25;;;;;;;24.30;10.60;;;;;;;-5.81;95.18;101288.13;4930699;29;20067;-76
2022/01/20 05:25:51;;;;;;;25.37;10.57;;;;;;;-5.89;96.14;101288.13;4930523;29;20028;-69
2022/01/20 05:28:17;;;;;;;20.77;10.10;;;;;;;-5.72;96.20;101281.63;4930509;29;20043;-70
2022/01/20 05:30:42;;;;;;;19.10;9.60;;;;;;;-5.87;94.87;101280.75;4929508;29;20091;-72
2022/01/20 05:33:09;;;;;;;21.50;11.20;;;;;;;-5.83;95.73;101277.91;4948297;28;20043;-75
2022/01/20 05:35:34;;;;;;;21.73;11.00;;;;;;;-5.81;95.06;101273.03;4985024;28;20069;-75
2022/01/20 05:38:00;;;;;;;19.57;10.67;;;;;;;-5.90;95.71;101280.41;4990985;28;20066;-69
2022/01/20 05:40:26;;;;;;;31.43;13.73;;;;;;;-5.92;96.21;101280.25;4990933;28;20065;-74
2022/01/20 05:42:53;;;;;;;35.47;14.23;;;;;;;-5.85;96.29;101266.75;4990965;28;20031;-69
2022/01/20 05:45:19;;;;;;;29.83;14.73;;;;;;;-5.77;95.84;101263.50;4995604;28;20374;-72
2022/01/20 05:47:48;;;;;;;29.87;15.90;;;;;;;-5.66;95.54;101268.88;4991090;28;20109;-72
2022/01/20 05:50:20;;;;;;;32.42;15.52;;;;;;;-5.82;95.56;101271.25;4990627;28;20104;-69
2022/01/20 05:52:46;;;;;;;25.23;14.27;;;;;;;-5.81;96.05;101283.09;4990944;28;20031;-69
2022/01/20 05:55:15;;;;;;;26.67;13.17;;;;;;;-6.05;95.87;101259.47;4991104;28;20038;-71
2022/01/20 05:57:41;;;;;;;;;;;;;;;-6.02;96.89;101278.31;4991306;28;20027;-69
2022/01/20 06:00:13;;;;;;;33.50;18.07;;;;;;;-6.10;97.01;101253.03;4990910;28;20367;-69
2022/01/20 06:05:23;;;;;;;31.40;15.33;;;;;;;-5.98;97.33;101266.97;4991228;28;20416;-72
2022/01/20 06:07:48;;;;;;;34.03;14.90;;;;;;;-6.25;97.22;101202.75;4994262;28;20034;-69
2022/01/20 06:10:14;;;;;;;33.80;15.27;;;;;;;-6.57;97.52;101177.31;4976324;28;20495;-70
2022/01/20 06:12:39;;;;;;;44.27;16.17;;;;;;;-5.91;97.22;101266.06;4993208;28;20041;-70
2022/01/20 06:15:05;;;;;;;35.27;16.43;;;;;;;-6.08;99.00;101271.66;4993684;28;20501;-69
2022/01/20 06:17:34;;;;;;;42.10;16.00;;;;;;;-5.98;98.31;101268.59;4980553;28;20027;-67
2022/01/20 06:19:59;;;;;;;33.45;15.55;;;;;;;-6.13;98.60;101245.09;4974649;28;20035;-71
2022/01/20 06:22:25;;;;;;;29.07;14.57;;;;;;;-6.10;98.89;101256.41;4983990;28;20030;-69
2022/01/20 06:24:50;;;;;;;29.70;16.30;;;;;;;-5.99;99.44;101256.75;5010076;28;20033;-67
2022/01/20 06:27:16;;;;;;;33.87;17.37;;;;;;;-5.89;99.29;101267.13;4975198;28;20026;-70
2022/01/20 06:29:42;;;;;;;39.30;17.33;;;;;;;-6.06;99.27;101230.03;4973086;28;20022;-68
2022/01/20 06:32:08;;;;;;;35.23;17.20;;;;;;;-6.10;99.63;101216.19;4973597;28;20023;-68
2022/01/20 06:34:34;;;;;;;36.97;17.33;;;;;;;-5.89;99.98;101250.41;4973550;28;20473;-66
2022/01/20 06:36:59;;;;;;;31.53;15.33;;;;;;;-5.82;100.00;101276.25;4973277;28;20027;-69
2022/01/20 06:39:24;;;;;;;40.07;16.57;;;;;;;-5.86;100.00;101253.31;4973808;28;20038;-67
2022/01/20 06:41:50;;;;;;;35.17;17.83;;;;;;;-5.64;100.00;101259.88;4974420;28;20026;-68
2022/01/20 06:44:16;;;;;;;31.63;15.10;;;;;;;-5.79;99.47;101229.75;4973340;28;20030;-70
2022/01/20 06:46:41;;;;;;;28.40;16.53;;;;;;;-5.48;99.94;101249.91;4985284;28;20497;-73
2022/01/20 06:49:09;;;;;;;26.87;15.50;;;;;;;-5.32;100.00;101268.56;4973141;28;20510;-66
2022/01/20 06:51:36;;;;;;;28.10;14.30;;;;;;;-5.25;100.00;101260.06;4980679;28;20062;-69
2022/01/20 06:54:02;;;;;;;26.87;15.23;;;;;;;-5.08;100.00;101261.97;4973274;28;20489;-74
2022/01/20 06:56:28;;;;;;;26.17;13.57;;;;;;;-4.99;99.91;101250.38;4972976;28;20031;-73
2022/01/20 06:58:53;;;;;;;35.43;15.07;;;;;;;-4.79;99.94;101260.16;4972692;28;20029;-68
2022/01/20 07:01:20;;;;;;;25.77;14.73;;;;;;;-4.73;99.42;101245.72;4978371;28;20018;-68
2022/01/20 07:03:45;;;;;;;42.17;15.47;;;;;;;-4.57;98.11;101244.91;4988125;28;20023;-70
2022/01/20 07:06:11;;;;;;;28.90;15.33;;;;;;;-4.56;98.34;101240.00;4994154;28;20036;-72
2022/01/20 07:08:36;;;;;;;29.60;14.43;;;;;;;-4.42;97.86;101228.91;4986205;28;20062;-70
2022/01/20 07:11:02;;;;;;;30.47;16.20;;;;;;;-4.05;97.46;101274.84;4991968;28;20521;-68
2022/01/20 07:13:27;;;;;;;35.47;15.50;;;;;;;-3.92;96.27;101277.09;4991442;28;20035;-70
2022/01/20 07:15:54;;;;;;;36.67;16.50;;;;;;;-3.79;94.93;101277.69;4991929;28;20045;-68
2022/01/20 07:18:20;;;;;;;37.03;16.57;;;;;;;-3.63;93.99;101281.81;4991552;28;20026;-69
2022/01/20 07:20:45;;;;;;;33.97;14.47;;;;;;;-3.75;94.47;101271.31;4989738;28;20105;-70
2022/01/20 07:23:11;;;;;;;30.90;15.63;;;;;;;-3.75;94.38;101286.44;5004183;28;20181;-69
2022/01/20 07:25:36;;;;;;;32.23;15.00;;;;;;;-3.58;94.56;101253.84;5001194;28;20578;-70
2022/01/20 07:28:02;;;;;;;33.80;15.70;;;;;;;-3.42;92.96;101268.94;4973748;28;20031;-70
2022/01/20 07:30:27;;;;;;;30.20;15.47;;;;;;;-3.47;92.65;101252.41;4979768;28;20058;-70
2022/01/20 07:32:53;;;;;;;30.93;15.33;;;;;;;-3.74;93.22;101200.84;5012279;28;20054;-70
2022/01/20 07:35:18;;;;;;;30.67;14.30;;;;;;;-3.35;93.24;101235.16;5012145;28;20476;-69
2022/01/20 07:37:43;;;;;;;30.70;15.20;;;;;;;-3.10;91.66;101227.59;5012057;28;20464;-67
2022/01/20 07:40:09;;;;;;;36.13;19.37;;;;;;;-2.87;91.06;101232.47;5011941;28;20080;-69
2022/01/20 07:42:35;;;;;;;58.00;33.10;;;;;;;-2.51;90.80;101238.63;5011947;28;20025;-70
2022/01/20 07:45:01;;;;;;;29.40;17.93;;;;;;;-2.31;90.82;101244.03;5012183;28;20550;-69
2022/01/20 07:47:26;;;;;;;26.80;15.20;;;;;;;-2.20;89.74;101239.19;4977083;28;20054;-68
2022/01/20 07:49:52;;;;;;;25.20;14.70;;;;;;;-2.30;88.72;101186.78;5012019;28;20036;-69
2022/01/20 07:52:20;;;;;;;24.57;14.10;;;;;;;-2.35;88.49;101216.66;5011800;28;20036;-68
2022/01/20 07:54:45;;;;;;;24.80;15.17;;;;;;;-2.25;90.89;101236.19;5011758;28;20488;-70
2022/01/20 07:57:11;;;;;;;29.13;14.80;;;;;;;-2.43;92.15;101225.09;5011596;28;20084;-68
2022/01/20 07:59:37;;;;;;;25.80;14.47;;;;;;;-2.47;92.91;101195.19;4993440;28;20408;-69
2022/01/20 08:02:02;;;;;;;18.57;12.63;;;;;;;-2.17;91.75;101224.31;5010451;28;20026;-72
2022/01/20 08:04:28;;;;;;;23.53;13.17;;;;;;;-2.00;91.93;101231.06;5011686;28;20412;-68
2022/01/20 08:06:53;;;;;;;20.40;11.87;;;;;;;-1.80;91.26;101235.53;5009419;28;20045;-67
2022/01/20 08:09:23;;;;;;;20.87;11.93;;;;;;;-1.83;90.11;101193.13;5011377;28;20029;-69
2022/01/20 08:11:49;;;;;;;19.00;11.60;;;;;;;-1.47;88.94;101237.97;4976707;28;20081;-69
2022/01/20 08:14:15;;;;;;;22.40;11.67;;;;;;;-1.26;89.40;101222.16;5011398;28;20109;-69
2022/01/20 08:16:41;;;;;;;23.57;13.70;;;;;;;-1.09;87.70;101213.66;5011544;28;20070;-72
2022/01/20 08:19:06;;;;;;;38.07;22.87;;;;;;;-0.95;87.53;101223.44;5011446;28;20168;-70
2022/01/20 08:21:32;;;;;;;19.47;12.20;;;;;;;-0.97;87.17;101204.69;5011230;28;20511;-70
2022/01/20 08:23:58;;;;;;;19.17;13.00;;;;;;;-0.88;87.31;101215.66;5011269;28;20542;-70
2022/01/20 08:26:23;;;;;;;18.47;11.57;;;;;;;-0.80;87.15;101218.03;4993538;28;20038;-68
2022/01/20 08:28:49;;;;;;;22.37;12.40;;;;;;;-0.60;87.09;101220.78;5010838;28;20164;-73
2022/01/20 08:31:14;;;;;;;17.77;10.83;;;;;;;-0.42;86.27;101225.81;5011074;28;20048;-73
2022/01/20 08:33:40;;;;;;;19.97;11.33;;;;;;;-0.43;85.98;101216.41;5011216;28;20073;-70
2022/01/20 08:36:05;;;;;;;20.70;11.83;;;;;;;-0.44;86.31;101194.34;5011157;28;20488;-70
2022/01/20 08:38:31;;;;;;;20.57;12.47;;;;;;;-0.44;85.84;101177.47;5011050;28;20030;-72
2022/01/20 08:40:57;;;;;;;22.07;12.67;;;;;;;-0.41;85.95;101167.63;5010859;28;20100;-75
2022/01/20 08:43:22;;;;;;;16.93;10.27;;;;;;;-0.18;84.79;101181.50;5011018;28;20053;-70
2022/01/20 08:45:48;;;;;;;18.10;11.40;;;;;;;-0.03;84.13;101194.69;5011170;28;20034;-71
2022/01/20 08:48:15;;;;;;;17.23;10.60;;;;;;;0.22;84.89;101204.53;5010608;28;20064;-72
2022/01/20 08:50:43;;;;;;;16.43;9.50;;;;;;;0.24;84.69;101195.44;5011015;28;20087;-72
2022/01/20 08:53:10;;;;;;;16.97;8.90;;;;;;;0.15;84.13;101158.28;5010925;28;20498;-72
2022/01/20 08:55:36;;;;;;;13.57;7.87;;;;;;;0.32;85.56;101190.28;5010779;28;20026;-72
2022/01/20 08:58:03;;;;;;;14.70;8.87;;;;;;;0.50;85.09;101204.47;5010996;28;20486;-71
2022/01/20 09:00:31;;;;;;;15.97;9.97;;;;;;;0.62;84.25;101201.38;5010892;28;20034;-68
2022/01/20 09:02:57;;;;;;;16.47;9.70;;;;;;;0.85;82.67;101199.97;5010581;28;20488;-70
2022/01/20 09:05:23;;;;;;;14.43;9.17;;;;;;;0.89;82.50;101191.84;5010829;28;20033;-75
2022/01/20 09:07:48;;;;;;;14.67;8.43;;;;;;;0.82;81.47;101192.06;5010458;28;20544;-76
2022/01/20 09:10:22;;;;;;;14.40;9.17;;;;;;;1.05;81.81;101190.66;5010625;28;20519;-72
2022/01/20 09:15:35;;;;;;;15.67;10.70;;;;;;;1.32;80.64;101194.69;5010646;28;20544;-69
2022/01/20 09:18:08;;;;;;;15.77;9.27;;;;;;;1.49;79.64;101191.00;5010548;28;20101;-69
2022/01/20 09:20:35;;;;;;;24.87;9.37;;;;;;;1.68;78.57;101184.94;5010482;28;20033;-70
2022/01/20 09:23:02;;;;;;;16.23;9.70;;;;;;;1.56;78.30;101134.78;5010675;28;20033;-70
2022/01/20 09:25:28;;;;;;;15.33;9.10;;;;;;;1.94;78.01;101180.38;5010723;28;20034;-69
2022/01/20 09:27:55;;;;;;;17.57;11.20;;;;;;;2.09;77.08;101164.56;4988487;28;20047;-72
2022/01/20 09:30:22;;;;;;;17.50;10.93;;;;;;;2.28;76.67;101154.25;4986201;28;20073;-71
2022/01/20 09:35:44;;;;;;;20.00;11.47;;;;;;;2.54;75.82;101135.03;4911915;29;20565;-72
2022/01/20 09:38:11;;;;;;;16.70;10.57;;;;;;;2.73;74.23;101138.28;4912044;29;20060;-75
2022/01/20 09:40:37;;;;;;;19.27;11.17;;;;;;;2.90;74.52;101151.47;4875373;29;20132;-69
2022/01/20 09:43:04;;;;;;;18.13;9.83;;;;;;;2.75;73.94;101100.16;4880669;29;20081;-70
2022/01/20 09:45:30;;;;;;;17.00;10.30;;;;;;;3.10;73.05;101127.50;4915379;29;20623;-72
2022/01/20 09:47:56;;;;;;;17.83;10.40;;;;;;;3.24;71.61;101126.06;4915089;29;20139;-70
2022/01/20 09:50:24;;;;;;;15.75;10.10;;;;;;;3.29;71.07;101129.84;4912568;29;20036;-71
2022/01/20 09:52:51;;;;;;;18.27;11.38;;;;;;;3.42;71.66;101112.91;4895787;29;20052;-73
2022/01/20 09:55:18;;;;;;;19.23;10.75;;;;;;;3.62;70.80;101101.66;4915209;29;20123;-69
2022/01/20 09:57:44;;;;;;;18.48;10.55;;;;;;;3.77;69.22;101092.56;4915167;29;20139;-72
2022/01/20 10:00:13;;;;;;;17.45;9.85;;;;;;;3.76;68.34;101075.47;4908862;29;20634;-70
2022/01/20 10:03:00;;;;;;;15.93;9.25;;;;;;;4.03;68.22;101078.28;4915229;29;20602;-70
2022/01/20 10:05:31;;;;;;;15.63;10.02;;;;;;;3.96;65.27;101064.19;4915043;29;20562;-69
2022/01/20 10:08:07;;;;;;;11.75;6.97;;;;;;;3.75;62.46;101016.63;4914805;29;20475;-73
2022/01/20 10:10:40;;;;;;;13.40;7.78;;;;;;;4.00;60.49;101047.38;4909615;29;20052;-71
2022/01/20 10:13:07;;;;;;;12.07;7.15;;;;;;;4.16;60.59;101046.84;4969061;28;20038;-70
2022/01/20 10:15:33;;;;;;;14.18;7.60;;;;;;;4.08;60.84;101045.41;4993985;28;20400;-70
2022/01/20 10:18:08;;;;;;;13.43;8.25;;;;;;;4.22;62.58;101042.16;5004863;28;20033;-70
2022/01/20 10:20:34;;;;;;;11.82;6.82;;;;;;;4.45;59.74;101031.03;5013782;28;20105;-73
2022/01/20 10:22:59;;;;;;;14.85;7.45;;;;;;;4.41;57.46;101026.50;5013436;28;20049;-69
2022/01/20 10:25:25;;;;;;;12.20;7.25;;;;;;;4.37;56.70;101027.94;4995774;28;20034;-70
2022/01/20 10:27:54;;;;;;;10.73;5.50;;;;;;;4.69;52.54;101016.50;5013267;28;20065;-70
2022/01/20 10:30:22;;;;;;;10.43;5.40;;;;;;;4.88;51.83;101011.78;5013334;28;20029;-69
2022/01/20 10:32:55;;;;;;;16.00;9.87;;;;;;;4.79;52.62;101009.47;5013272;28;20824;-72
2022/01/20 10:35:26;;;;;;;16.73;14.43;;;;;;;4.54;51.01;100982.19;5013086;28;20026;-69
2022/01/20 10:38:00;;;;;;;13.10;8.88;;;;;;;4.77;51.70;101013.59;5013349;28;20037;-71
2022/01/20 10:40:26;;;;;;;14.07;5.65;;;;;;;4.70;50.35;100931.31;5002222;28;20133;-71
2022/01/20 10:42:52;;;;;;;13.77;5.50;;;;;;;5.15;49.86;100997.41;4973758;28;20034;-70
2022/01/20 10:45:23;;;;;;;11.73;5.32;;;;;;;4.93;49.88;100965.25;5006770;28;20037;-72
2022/01/20 10:47:50;;;;;;;10.40;5.30;;;;;;;5.11;48.71;100933.97;5002384;28;20508;-72
2022/01/20 10:50:21;;;;;;;13.77;6.30;;;;;;;5.39;50.21;100980.22;4980542;28;20023;-71
2022/01/20 10:52:47;;;;;;;13.52;6.90;;;;;;;5.17;49.29;100922.50;4989983;28;20042;-71
2022/01/20 10:55:27;;;;;;;9.68;6.07;;;;;;;5.64;48.51;100966.47;4991179;28;20040;-75
2022/01/20 10:57:54;;;;;;;13.30;6.18;;;;;;;5.72;49.78;100964.38;4976695;28;20078;-69
2022/01/20 11:00:25;;;;;;;13.43;6.32;;;;;;;5.78;48.92;100941.72;4972780;28;20034;-74
2022/01/20 11:02:59;;;;;;;14.40;5.57;;;;;;;5.66;49.32;100937.59;4977560;28;20029;-75
2022/01/20 11:05:29;;;;;;;15.63;6.57;;;;;;;5.65;49.96;100943.50;4992121;28;20476;-72
2022/01/20 11:07:54;;;;;;;11.65;6.07;;;;;;;5.60;50.28;100950.00;4992100;28;20030;-72
2022/01/20 11:10:20;;;;;;;15.63;7.03;;;;;;;5.73;50.27;100938.91;4992134;28;20038;-71
2022/01/20 11:12:46;;;;;;;16.02;7.95;;;;;;;5.90;49.76;100931.38;4988761;28;20404;-70
2022/01/20 11:15:15;;;;;;;16.30;6.63;;;;;;;5.76;51.19;100925.41;4991856;28;20030;-70
2022/01/20 11:17:42;;;;;;;12.33;6.43;;;;;;;5.86;52.19;100930.31;4992382;28;20026;-70
2022/01/20 11:20:15;;;;;;;12.57;7.32;;;;;;;6.06;53.93;100923.91;4989362;28;20030;-69
2022/01/20 11:22:57;;;;;;;11.07;5.68;;;;;;;5.99;52.09;100894.44;5007543;28;20080;-71
2022/01/20 11:25:26;;;;;;;11.00;6.50;;;;;;;6.12;51.34;100897.78;4992468;28;20042;-71
2022/01/20 11:28:04;;;;;;;13.10;6.77;;;;;;;6.30;51.96;100908.25;4992664;28;20125;-72
2022/01/20 11:30:32;;;;;;;14.18;7.00;;;;;;;6.27;52.32;100896.13;4992524;28;20034;-71
2022/01/20 11:33:15;;;;;;;13.70;6.93;;;;;;;6.13;52.21;100853.38;4985804;28;20386;-73
2022/01/20 11:35:47;;;;;;;25.92;15.05;;;;;;;6.37;52.70;100873.59;4973138;28;20055;-70
2022/01/20 11:38:19;;;;;;;13.05;7.55;;;;;;;6.46;51.31;100879.31;4955729;28;20031;-71
2022/01/20 11:41:01;;;;;;;14.98;8.82;;;;;;;6.54;52.10;100878.09;4973038;28;20035;-71
2022/01/20 11:43:54;;;;;;;10.68;6.65;;;;;;;6.64;51.95;100866.66;4973198;28;20382;-74
2022/01/20 11:46:24;;;;;;;9.05;6.07;;;;;;;6.67;50.97;100855.69;4931799;29;20040;-70
2022/01/20 11:49:10;;;;;;;10.40;5.80;;;;;;;6.62;50.19;100828.09;4932262;29;20075;-70
2022/01/20 11:51:54;;;;;;;8.90;5.50;;;;;;;6.86;49.83;100844.84;4943111;29;20047;-67
2022/01/20 11:54:33;;;;;;;10.77;6.30;;;;;;;6.94;48.97;100841.03;4951116;29;20039;-68
2022/01/20 11:57:25;;;;;;;12.50;8.65;;;;;;;6.97;50.52;100829.25;4935012;29;20039;-69
2022/01/20 11:59:57;;;;;;;15.75;6.55;;;;;;;6.86;49.19;100790.97;4934373;29;20497;-69
2022/01/20 12:02:35;;;;;;;12.40;7.10;;;;;;;7.05;50.37;100833.94;4950636;28;20050;-71
2022/01/20 12:05:27;;;;;;;13.68;6.60;;;;;;;7.12;51.80;100825.81;4949951;29;20058;-70
2022/01/20 12:08:14;;;;;;;15.00;7.57;;;;;;;7.10;51.65;100830.88;4950847;29;20047;-73
2022/01/20 12:10:43;;;;;;;13.35;7.07;;;;;;;7.11;52.22;100824.03;4950744;29;20102;-72
2022/01/20 12:13:11;;;;;;;15.97;8.23;;;;;;;7.10;52.94;100822.25;4958110;28;20412;-69
2022/01/20 12:15:58;;;;;;;11.65;7.05;;;;;;;6.99;53.73;100807.94;4969786;28;20042;-71
2022/01/20 12:18:24;;;;;;;11.98;6.95;;;;;;;7.02;52.63;100818.38;4969743;28;20039;-72
2022/01/20 12:20:50;;;;;;;9.40;6.20;;;;;;;6.93;52.40;100798.22;4969988;28;20045;-73
2022/01/20 12:23:17;;;;;;;12.27;6.60;;;;;;;7.06;53.43;100815.19;4978695;28;20464;-73
2022/01/20 12:25:44;;;;;;;18.85;13.07;;;;;;;6.73;53.79;100769.72;4990075;28;20419;-72
2022/01/20 12:28:12;;;;;;;14.05;8.05;;;;;;;6.97;52.25;100819.00;4991526;28;20048;-70